createdAt,value
2022-10-13T00:00:09.852Z,8.67
2022-10-13T00:01:09.885Z,8.68
2022-10-13T00:02:09.801Z,8.68
2022-10-13T00:03:09.795Z,8.67
2022-10-13T00:04:09.808Z,8.70
2022-10-13T00:05:09.772Z,8.71
2022-10-13T00:06:09.762Z,8.65
2022-10-13T00:07:09.750Z,8.63
2022-10-13T00:08:09.740Z,8.63
2022-10-13T00:09:09.755Z,8.62
2022-10-13T00:10:09.724Z,8.57
2022-10-13T00:11:09.706Z,8.56
2022-10-13T00:12:09.700Z,8.59
2022-10-13T00:13:09.691Z,8.65
2022-10-13T00:14:09.702Z,8.59
2022-10-13T00:15:09.664Z,8.63
2022-10-13T00:16:09.675Z,8.60
2022-10-13T00:17:09.669Z,8.59
2022-10-13T00:18:09.643Z,8.55
2022-10-13T00:19:14.235Z,8.53
2022-10-13T00:20:10.632Z,8.55
2022-10-13T00:21:09.602Z,8.50
2022-10-13T00:22:09.586Z,8.55
2022-10-13T00:23:09.572Z,8.47
2022-10-13T00:24:09.563Z,8.52
2022-10-13T00:25:09.579Z,8.46
2022-10-13T00:26:09.544Z,8.39
2022-10-13T00:27:09.566Z,8.47
2022-10-13T00:28:09.521Z,8.47
2022-10-13T00:29:09.509Z,8.50
2022-10-13T00:30:09.519Z,8.50
2022-10-13T00:31:09.487Z,8.46
2022-10-13T00:32:09.494Z,8.49
2022-10-13T00:33:09.472Z,8.39
2022-10-13T00:34:09.455Z,8.37
2022-10-13T00:35:09.472Z,8.35
2022-10-13T00:36:09.434Z,8.37
2022-10-13T00:37:09.447Z,8.39
2022-10-13T00:38:09.412Z,8.44
2022-10-13T00:39:09.403Z,8.26
2022-10-13T00:40:09.389Z,8.26
2022-10-13T00:41:09.381Z,8.28
2022-10-13T00:42:09.391Z,8.38
2022-10-13T00:43:09.355Z,8.34
2022-10-13T00:44:09.347Z,8.37
2022-10-13T00:45:09.371Z,8.32
2022-10-13T00:46:09.325Z,8.37
2022-10-13T00:47:09.329Z,8.28
2022-10-13T00:48:09.318Z,8.32
2022-10-13T00:49:09.295Z,8.38
2022-10-13T00:50:09.280Z,8.31
2022-10-13T00:51:09.293Z,8.34
2022-10-13T00:52:09.262Z,8.34
2022-10-13T00:53:09.249Z,8.28
2022-10-13T00:54:09.241Z,8.28
2022-10-13T00:55:09.226Z,8.32
2022-10-13T00:56:09.236Z,8.26
2022-10-13T00:57:09.209Z,8.26
2022-10-13T00:58:09.223Z,8.26
2022-10-13T00:59:09.189Z,8.19
2022-10-13T01:00:09.175Z,8.24
2022-10-13T01:01:09.205Z,8.14
2022-10-13T01:02:09.150Z,8.23
2022-10-13T01:03:09.140Z,8.21
2022-10-13T01:04:09.148Z,8.19
2022-10-13T01:05:09.119Z,8.21
2022-10-13T01:06:09.137Z,8.23
2022-10-13T01:07:09.099Z,8.06
2022-10-13T01:08:09.081Z,8.10
2022-10-13T01:09:09.076Z,8.09
2022-10-13T01:10:09.061Z,8.17
2022-10-13T01:11:09.081Z,8.12
2022-10-13T01:12:09.038Z,8.13
2022-10-13T01:13:09.036Z,8.10
2022-10-13T01:14:09.021Z,8.10
2022-10-13T01:15:09.013Z,8.10
2022-10-13T01:16:09.020Z,8.10
2022-10-13T01:17:08.990Z,8.12
2022-10-13T01:18:08.981Z,8.10
2022-10-13T01:19:08.971Z,8.10
2022-10-13T01:20:09.033Z,8.09
2022-10-13T01:21:08.948Z,8.10
2022-10-13T01:22:08.935Z,8.06
2022-10-13T01:23:08.923Z,8.10
2022-10-13T01:24:08.915Z,8.12
2022-10-13T01:25:08.915Z,7.99
2022-10-13T01:26:08.888Z,8.02
2022-10-13T01:27:08.880Z,7.99
2022-10-13T01:28:08.873Z,7.99
2022-10-13T01:29:08.860Z,8.01
2022-10-13T01:30:08.872Z,8.01
2022-10-13T01:31:08.862Z,7.98
2022-10-13T01:32:08.832Z,7.99
2022-10-13T01:33:08.824Z,7.95
2022-10-13T01:34:08.807Z,7.92
2022-10-13T01:35:08.798Z,7.94
2022-10-13T01:36:08.829Z,7.95
2022-10-13T01:37:08.777Z,7.98
2022-10-13T01:38:08.769Z,7.86
2022-10-13T01:39:08.753Z,8.01
2022-10-13T01:40:08.749Z,7.95
2022-10-13T01:41:10.718Z,7.98
2022-10-13T01:42:11.088Z,7.92
2022-10-13T01:43:08.734Z,7.95
2022-10-13T01:44:08.699Z,7.87
2022-10-13T01:45:08.714Z,7.87
2022-10-13T01:46:08.681Z,7.92
2022-10-13T01:47:08.692Z,7.91
2022-10-13T01:48:08.658Z,7.91
2022-10-13T01:49:08.652Z,7.94
2022-10-13T01:50:08.647Z,7.84
2022-10-13T01:51:08.644Z,7.83
2022-10-13T01:52:08.664Z,7.91
2022-10-13T01:53:08.610Z,7.92
2022-10-13T01:54:08.601Z,7.80
2022-10-13T01:55:08.587Z,7.84
2022-10-13T01:56:08.603Z,7.88
2022-10-13T01:57:08.584Z,7.81
2022-10-13T01:58:08.554Z,7.81
2022-10-13T01:59:08.537Z,7.80
2022-10-13T02:00:08.532Z,7.76
2022-10-13T02:01:08.544Z,7.77
2022-10-13T02:02:08.535Z,7.81
2022-10-13T02:03:08.504Z,7.84
2022-10-13T02:04:08.513Z,7.73
2022-10-13T02:05:08.481Z,7.76
2022-10-13T02:06:08.467Z,7.77
2022-10-13T02:07:08.457Z,7.77
2022-10-13T02:08:08.464Z,7.69
2022-10-13T02:09:08.456Z,7.78
2022-10-13T02:10:08.428Z,7.71
2022-10-13T02:11:08.417Z,7.71
2022-10-13T02:12:08.421Z,7.77
2022-10-13T02:13:08.394Z,7.76
2022-10-13T02:14:08.405Z,7.71
2022-10-13T02:15:08.371Z,7.78
2022-10-13T02:16:08.362Z,7.74
2022-10-13T02:17:08.377Z,7.73
2022-10-13T02:18:08.338Z,7.61
2022-10-13T02:19:08.328Z,7.68
2022-10-13T02:20:08.323Z,7.77
2022-10-13T02:21:08.309Z,7.73
2022-10-13T02:22:08.321Z,7.71
2022-10-13T02:23:08.284Z,7.74
2022-10-13T02:24:08.321Z,7.64
2022-10-13T02:25:08.266Z,7.77
2022-10-13T02:26:08.259Z,7.80
2022-10-13T02:27:08.262Z,7.62
2022-10-13T02:28:08.233Z,7.68
2022-10-13T02:29:08.225Z,7.64
2022-10-13T02:30:08.214Z,7.68
2022-10-13T02:31:08.227Z,7.62
2022-10-13T02:32:08.191Z,7.66
2022-10-13T02:33:08.176Z,7.66
2022-10-13T02:34:08.176Z,7.64
2022-10-13T02:35:08.163Z,7.64
2022-10-13T02:36:08.171Z,7.66
2022-10-13T02:37:08.146Z,7.64
2022-10-13T02:38:08.155Z,7.64
2022-10-13T02:39:08.114Z,7.61
2022-10-13T02:40:08.713Z,7.57
2022-10-13T02:41:08.098Z,7.55
2022-10-13T02:42:08.127Z,7.58
2022-10-13T02:43:08.085Z,7.62
2022-10-13T02:44:08.064Z,7.64
2022-10-13T02:45:08.061Z,7.62
2022-10-13T02:46:08.044Z,7.58
2022-10-13T02:47:08.036Z,7.55
2022-10-13T02:48:08.050Z,7.50
2022-10-13T02:49:08.017Z,7.52
2022-10-13T02:50:08.002Z,7.52
2022-10-13T02:51:07.991Z,7.47
2022-10-13T02:52:07.982Z,7.54
2022-10-13T02:53:07.993Z,7.54
2022-10-13T02:54:07.960Z,7.50
2022-10-13T02:55:07.957Z,7.44
2022-10-13T02:56:07.955Z,7.49
2022-10-13T02:57:07.951Z,7.46
2022-10-13T02:58:07.916Z,7.46
2022-10-13T02:59:07.901Z,7.54
2022-10-13T03:00:07.896Z,7.50
2022-10-13T03:01:07.919Z,7.49
2022-10-13T03:02:07.902Z,7.47
2022-10-13T03:03:07.885Z,7.50
2022-10-13T03:04:07.855Z,7.47
2022-10-13T03:05:07.846Z,7.54
2022-10-13T03:06:07.835Z,7.49
2022-10-13T03:07:07.820Z,7.37
2022-10-13T03:08:07.839Z,7.40
2022-10-13T03:09:07.811Z,7.42
2022-10-13T03:10:07.792Z,7.37
2022-10-13T03:11:07.777Z,7.46
2022-10-13T03:12:07.795Z,7.43
2022-10-13T03:13:07.760Z,7.43
2022-10-13T03:14:07.771Z,7.42
2022-10-13T03:15:07.741Z,7.40
2022-10-13T03:16:07.727Z,7.33
2022-10-13T03:17:11.152Z,7.40
2022-10-13T03:18:08.700Z,7.40
2022-10-13T03:19:07.721Z,7.33
2022-10-13T03:20:07.684Z,7.39
2022-10-13T03:21:07.672Z,7.31
2022-10-13T03:22:07.663Z,7.25
2022-10-13T03:23:07.668Z,7.33
2022-10-13T03:24:07.666Z,7.25
2022-10-13T03:25:07.629Z,7.37
2022-10-13T03:26:07.635Z,7.28
2022-10-13T03:27:07.611Z,7.33
2022-10-13T03:28:07.615Z,7.24
2022-10-13T03:29:07.615Z,7.26
2022-10-13T03:30:07.577Z,7.26
2022-10-13T03:31:07.570Z,7.28
2022-10-13T03:32:07.560Z,7.22
2022-10-13T03:33:07.575Z,7.28
2022-10-13T03:34:07.532Z,7.19
2022-10-13T03:35:07.530Z,7.22
2022-10-13T03:36:07.536Z,7.31
2022-10-13T03:37:07.496Z,7.24
2022-10-13T03:38:07.496Z,7.18
2022-10-13T03:39:07.498Z,7.22
2022-10-13T03:40:07.467Z,7.26
2022-10-13T03:41:07.463Z,7.22
2022-10-13T03:42:07.452Z,7.18
2022-10-13T03:43:07.465Z,7.16
2022-10-13T03:44:07.513Z,7.15
2022-10-13T03:45:07.411Z,7.19
2022-10-13T03:46:07.403Z,7.16
2022-10-13T03:47:07.391Z,7.15
2022-10-13T03:48:07.405Z,7.16
2022-10-13T03:49:07.375Z,7.24
2022-10-13T03:50:07.364Z,7.21
2022-10-13T03:51:07.355Z,7.21
2022-10-13T03:52:07.341Z,7.24
2022-10-13T03:53:07.352Z,7.10
2022-10-13T03:54:07.320Z,7.22
2022-10-13T03:55:07.306Z,7.21
2022-10-13T03:56:07.293Z,7.13
2022-10-13T03:57:07.283Z,7.22
2022-10-13T03:58:07.292Z,7.18
2022-10-13T03:59:07.268Z,7.22
2022-10-13T04:00:07.328Z,7.15
2022-10-13T04:01:07.252Z,7.16
2022-10-13T04:02:07.310Z,7.19
2022-10-13T04:03:07.238Z,7.08
2022-10-13T04:04:07.218Z,7.21
2022-10-13T04:05:07.195Z,7.19
2022-10-13T04:06:07.192Z,7.13
2022-10-13T04:07:07.186Z,7.19
2022-10-13T04:08:07.198Z,7.19
2022-10-13T04:09:07.153Z,7.15
2022-10-13T04:10:11.248Z,7.16
2022-10-13T04:11:07.133Z,7.11
2022-10-13T04:12:07.121Z,7.04
2022-10-13T04:13:07.116Z,7.18
2022-10-13T04:14:07.133Z,7.15
2022-10-13T04:15:07.188Z,7.15
2022-10-13T04:16:07.102Z,7.16
2022-10-13T04:17:07.067Z,7.16
2022-10-13T04:18:07.059Z,7.13
2022-10-13T04:19:07.068Z,7.16
2022-10-13T04:20:07.037Z,7.07
2022-10-13T04:21:07.026Z,7.15
2022-10-13T04:22:07.019Z,7.18
2022-10-13T04:23:07.011Z,7.16
2022-10-13T04:24:07.014Z,7.16
2022-10-13T04:25:06.987Z,7.07
2022-10-13T04:26:06.980Z,7.18
2022-10-13T04:27:06.966Z,7.07
2022-10-13T04:28:06.973Z,7.15
2022-10-13T04:29:06.963Z,7.19
2022-10-13T04:30:06.940Z,7.11
2022-10-13T04:31:06.920Z,7.15
2022-10-13T04:32:06.929Z,7.16
2022-10-13T04:33:06.904Z,7.16
2022-10-13T04:34:06.934Z,7.19
2022-10-13T04:35:06.881Z,7.11
2022-10-13T04:36:06.871Z,7.19
2022-10-13T04:37:06.858Z,7.15
2022-10-13T04:38:06.846Z,7.11
2022-10-13T04:39:06.856Z,7.18
2022-10-13T04:40:06.846Z,7.16
2022-10-13T04:41:06.812Z,7.19
2022-10-13T04:42:06.800Z,7.15
2022-10-13T04:43:06.796Z,7.13
2022-10-13T04:44:06.785Z,7.18
2022-10-13T04:45:06.794Z,7.22
2022-10-13T04:46:06.765Z,7.24
2022-10-13T04:47:06.752Z,7.18
2022-10-13T04:48:06.761Z,7.19
2022-10-13T04:49:06.752Z,7.19
2022-10-13T04:50:06.726Z,7.18
2022-10-13T04:51:06.737Z,7.18
2022-10-13T04:52:06.704Z,7.15
2022-10-13T04:53:06.689Z,7.26
2022-10-13T04:54:06.695Z,7.15
2022-10-13T04:55:06.687Z,7.25
2022-10-13T04:56:06.679Z,7.22
2022-10-13T04:57:06.647Z,7.16
2022-10-13T04:58:06.634Z,7.28
2022-10-13T04:59:06.623Z,7.25
2022-10-13T05:00:06.633Z,7.33
2022-10-13T05:01:06.711Z,7.26
2022-10-13T05:02:06.594Z,7.28
2022-10-13T05:03:06.578Z,7.26
2022-10-13T05:04:06.590Z,7.18
2022-10-13T05:05:06.577Z,7.29
2022-10-13T05:06:06.577Z,7.24
2022-10-13T05:07:17.654Z,7.15
2022-10-13T05:08:07.533Z,7.22
2022-10-13T05:09:06.520Z,7.25
2022-10-13T05:10:06.512Z,7.25
2022-10-13T05:11:06.517Z,7.21
2022-10-13T05:12:06.484Z,7.19
2022-10-13T05:13:06.472Z,7.19
2022-10-13T05:14:06.463Z,7.22
2022-10-13T05:15:06.449Z,7.24
2022-10-13T05:16:06.468Z,7.22
2022-10-13T05:17:06.548Z,7.28
2022-10-13T05:18:06.470Z,7.31
2022-10-13T05:19:06.417Z,7.24
2022-10-13T05:20:06.417Z,7.26
2022-10-13T05:21:06.415Z,7.33
2022-10-13T05:22:06.381Z,7.26
2022-10-13T05:23:06.369Z,7.34
2022-10-13T05:24:06.370Z,7.37
2022-10-13T05:25:06.343Z,7.28
2022-10-13T05:26:06.355Z,7.25
2022-10-13T05:27:06.328Z,7.29
2022-10-13T05:28:06.315Z,7.26
2022-10-13T05:29:06.304Z,7.40
2022-10-13T05:30:06.320Z,7.31
2022-10-13T05:31:06.286Z,7.34
2022-10-13T05:32:06.275Z,7.39
2022-10-13T05:33:06.266Z,7.42
2022-10-13T05:34:06.272Z,7.31
2022-10-13T05:35:06.241Z,7.40
2022-10-13T05:36:06.297Z,7.40
2022-10-13T05:37:06.221Z,7.39
2022-10-13T05:38:06.214Z,7.43
2022-10-13T05:39:06.222Z,7.37
2022-10-13T05:40:06.187Z,7.43
2022-10-13T05:41:06.177Z,7.43
2022-10-13T05:42:06.168Z,7.44
2022-10-13T05:43:06.190Z,7.46
2022-10-13T05:44:06.173Z,7.44
2022-10-13T05:45:06.135Z,7.42
2022-10-13T05:46:06.129Z,7.43
2022-10-13T05:47:07.619Z,7.44
2022-10-13T05:48:06.114Z,7.42
2022-10-13T05:49:06.104Z,7.52
2022-10-13T05:50:06.081Z,7.49
2022-10-13T05:51:06.067Z,7.49
2022-10-13T05:52:06.093Z,7.44
2022-10-13T05:53:06.049Z,7.54
2022-10-13T05:54:06.060Z,7.43
2022-10-13T05:55:06.025Z,7.49
2022-10-13T05:56:06.027Z,7.49
2022-10-13T05:57:06.008Z,7.52
2022-10-13T05:58:05.999Z,7.50
2022-10-13T05:59:06.000Z,7.50
2022-10-13T06:00:05.972Z,7.52
2022-10-13T06:01:05.965Z,7.47
2022-10-13T06:02:06.015Z,7.47
2022-10-13T06:03:05.944Z,7.55
2022-10-13T06:04:05.949Z,7.55
2022-10-13T06:05:05.927Z,7.55
2022-10-13T06:06:05.926Z,7.54
2022-10-13T06:07:05.924Z,7.55
2022-10-13T06:08:05.910Z,7.55
2022-10-13T06:09:05.884Z,7.62
2022-10-13T06:10:05.871Z,7.62
2022-10-13T06:11:05.866Z,7.58
2022-10-13T06:12:05.875Z,7.61
2022-10-13T06:13:05.839Z,7.61
2022-10-13T06:14:05.824Z,7.61
2022-10-13T06:15:05.816Z,7.61
2022-10-13T06:16:05.807Z,7.64
2022-10-13T06:17:05.814Z,7.66
2022-10-13T06:18:05.786Z,7.64
2022-10-13T06:19:05.772Z,7.69
2022-10-13T06:20:05.757Z,7.68
2022-10-13T06:21:05.754Z,7.69
2022-10-13T06:22:05.764Z,7.66
2022-10-13T06:23:05.730Z,7.73
2022-10-13T06:24:05.737Z,7.64
2022-10-13T06:25:05.714Z,7.69
2022-10-13T06:26:05.732Z,7.71
2022-10-13T06:27:05.706Z,7.68
2022-10-13T06:28:05.680Z,7.73
2022-10-13T06:29:05.716Z,7.66
2022-10-13T06:30:05.661Z,7.66
2022-10-13T06:31:05.668Z,7.76
2022-10-13T06:32:05.633Z,7.69
2022-10-13T06:33:05.633Z,7.73
2022-10-13T06:34:05.624Z,7.76
2022-10-13T06:35:05.608Z,7.77
2022-10-13T06:36:05.633Z,7.73
2022-10-13T06:37:05.582Z,7.68
2022-10-13T06:38:05.577Z,7.71
2022-10-13T06:39:05.560Z,7.74
2022-10-13T06:40:05.582Z,7.77
2022-10-13T06:41:05.537Z,7.80
2022-10-13T06:42:05.553Z,7.74
2022-10-13T06:43:05.523Z,7.78
2022-10-13T06:44:05.528Z,7.80
2022-10-13T06:45:05.498Z,7.84
2022-10-13T06:46:05.485Z,7.87
2022-10-13T06:47:05.479Z,7.83
2022-10-13T06:48:05.469Z,7.78
2022-10-13T06:49:05.473Z,7.76
2022-10-13T06:50:05.443Z,7.80
2022-10-13T06:51:05.435Z,7.88
2022-10-13T06:52:05.424Z,7.92
2022-10-13T06:53:05.437Z,7.87
2022-10-13T06:54:05.399Z,7.88
2022-10-13T06:55:05.388Z,7.86
2022-10-13T06:56:05.411Z,7.91
2022-10-13T06:57:05.368Z,7.91
2022-10-13T06:58:05.376Z,7.86
2022-10-13T06:59:05.368Z,7.91
2022-10-13T07:00:05.333Z,7.98
2022-10-13T07:01:05.388Z,7.87
2022-10-13T07:02:05.311Z,7.94
2022-10-13T07:03:05.303Z,7.87
2022-10-13T07:04:05.318Z,7.83
2022-10-13T07:05:05.291Z,7.91
2022-10-13T07:06:05.267Z,7.95
2022-10-13T07:07:05.259Z,8.01
2022-10-13T07:08:05.274Z,7.91
2022-10-13T07:09:05.236Z,7.99
2022-10-13T07:10:05.232Z,7.96
2022-10-13T07:11:05.371Z,7.95
2022-10-13T07:12:05.221Z,8.01
2022-10-13T07:13:05.250Z,8.02
2022-10-13T07:14:05.185Z,7.99
2022-10-13T07:15:05.247Z,8.05
2022-10-13T07:16:05.167Z,8.02
2022-10-13T07:17:05.148Z,7.99
2022-10-13T07:18:05.134Z,8.05
2022-10-13T07:19:05.154Z,8.04
2022-10-13T07:20:07.362Z,8.12
2022-10-13T07:21:05.101Z,8.12
2022-10-13T07:22:05.092Z,8.14
2022-10-13T07:23:05.082Z,8.14
2022-10-13T07:24:05.091Z,8.13
2022-10-13T07:25:05.067Z,8.14
2022-10-13T07:26:05.075Z,8.16
2022-10-13T07:27:07.779Z,8.17
2022-10-13T07:28:05.048Z,8.20
2022-10-13T07:29:05.040Z,8.10
2022-10-13T07:30:05.005Z,8.23
2022-10-13T07:31:05.003Z,8.21
2022-10-13T07:32:04.981Z,8.29
2022-10-13T07:33:04.990Z,8.20
2022-10-13T07:34:04.982Z,8.23
2022-10-13T07:35:04.959Z,8.29
2022-10-13T07:36:04.973Z,8.24
2022-10-13T07:37:04.931Z,8.35
2022-10-13T07:38:04.922Z,8.37
2022-10-13T07:39:04.904Z,8.38
2022-10-13T07:40:04.891Z,8.32
2022-10-13T07:41:04.946Z,8.31
2022-10-13T07:42:04.893Z,8.41
2022-10-13T07:43:04.860Z,8.38
2022-10-13T07:44:04.958Z,8.41
2022-10-13T07:45:04.841Z,8.42
2022-10-13T07:46:04.822Z,8.53
2022-10-13T07:47:04.838Z,8.41
2022-10-13T07:48:04.810Z,8.47
2022-10-13T07:49:04.796Z,8.44
2022-10-13T07:50:04.788Z,8.49
2022-10-13T07:51:04.775Z,8.55
2022-10-13T07:52:04.788Z,8.59
2022-10-13T07:53:05.592Z,8.60
2022-10-13T07:54:04.737Z,8.62
2022-10-13T07:55:04.742Z,8.62
2022-10-13T07:56:04.719Z,8.70
2022-10-13T07:57:04.724Z,8.75
2022-10-13T07:58:04.693Z,8.71
2022-10-13T07:59:04.680Z,8.68
2022-10-13T08:00:04.811Z,8.74
2022-10-13T08:01:04.659Z,8.77
2022-10-13T08:02:04.681Z,8.78
2022-10-13T08:03:04.638Z,8.80
2022-10-13T08:04:04.630Z,8.83
2022-10-13T08:05:04.617Z,8.85
2022-10-13T08:06:04.633Z,8.85
2022-10-13T08:07:04.625Z,8.95
2022-10-13T08:08:04.584Z,8.90
2022-10-13T08:09:04.573Z,8.88
2022-10-13T08:10:04.559Z,8.96
2022-10-13T08:11:04.552Z,9.01
2022-10-13T08:12:04.558Z,9.01
2022-10-13T08:13:04.539Z,9.08
2022-10-13T08:14:04.525Z,9.06
2022-10-13T08:15:06.299Z,9.11
2022-10-13T08:16:04.531Z,9.12
2022-10-13T08:17:04.510Z,9.14
2022-10-13T08:18:04.472Z,9.23
2022-10-13T08:19:04.466Z,9.19
2022-10-13T08:20:04.455Z,9.30
2022-10-13T08:21:33.210Z,9.32
2022-10-13T08:22:09.180Z,9.26
2022-10-13T08:23:04.424Z,9.40
2022-10-13T08:24:04.407Z,9.33
2022-10-13T08:25:04.409Z,9.34
2022-10-13T08:26:04.393Z,9.41
2022-10-13T08:27:04.402Z,9.36
2022-10-13T08:28:04.364Z,9.37
2022-10-13T08:29:34.246Z,9.45
2022-10-13T08:30:05.426Z,9.45
2022-10-13T08:31:04.417Z,9.47
2022-10-13T08:32:04.365Z,9.44
2022-10-13T08:33:04.314Z,9.52
2022-10-13T08:34:04.321Z,9.57
2022-10-13T08:35:04.471Z,9.59
2022-10-13T08:36:04.273Z,9.55
2022-10-13T08:37:04.290Z,9.63
2022-10-13T08:38:04.286Z,9.63
2022-10-13T08:39:04.275Z,9.69
2022-10-13T08:40:04.237Z,9.78
2022-10-13T08:41:04.225Z,9.78
2022-10-13T08:42:04.218Z,9.83
2022-10-13T08:43:04.202Z,9.90
2022-10-13T08:44:39.535Z,9.90
2022-10-13T08:46:05.174Z,10.02
2022-10-13T08:47:04.161Z,9.90
2022-10-13T08:48:04.171Z,10.06
2022-10-13T08:49:04.138Z,10.03
2022-10-13T08:50:04.148Z,10.09
2022-10-13T08:51:04.144Z,10.12
2022-10-13T08:52:04.215Z,10.09
2022-10-13T08:53:04.099Z,10.05
2022-10-13T08:54:04.086Z,10.14
2022-10-13T08:55:04.105Z,10.12
2022-10-13T08:56:04.063Z,10.27
2022-10-13T08:57:04.053Z,10.26
2022-10-13T08:58:04.034Z,10.26
2022-10-13T08:59:04.041Z,10.27
2022-10-13T09:00:04.035Z,10.27
2022-10-13T09:01:04.009Z,10.36
2022-10-13T09:02:04.129Z,10.43
2022-10-13T09:03:03.990Z,10.46
2022-10-13T09:04:04.116Z,10.42
2022-10-13T09:05:04.018Z,10.43
2022-10-13T09:06:03.978Z,10.49
2022-10-13T09:07:03.946Z,10.58
2022-10-13T09:08:03.940Z,10.60
2022-10-13T09:09:03.941Z,10.68
2022-10-13T09:10:03.942Z,10.61
2022-10-13T09:11:03.924Z,10.70
2022-10-13T09:12:03.891Z,10.68
2022-10-13T09:13:03.880Z,10.78
2022-10-13T09:14:03.870Z,10.82
2022-10-13T09:15:03.853Z,10.83
2022-10-13T09:16:03.864Z,10.87
2022-10-13T09:17:03.849Z,10.91
2022-10-13T09:18:03.843Z,10.95
2022-10-13T09:19:03.813Z,11.00
2022-10-13T09:20:03.827Z,11.01
2022-10-13T09:21:03.802Z,11.04
2022-10-13T09:22:03.783Z,11.04
2022-10-13T09:23:03.770Z,11.04
2022-10-13T09:24:03.759Z,11.03
2022-10-13T09:25:03.778Z,11.13
2022-10-13T09:26:03.731Z,11.23
2022-10-13T09:27:03.731Z,11.16
2022-10-13T09:28:03.725Z,11.23
2022-10-13T09:29:03.712Z,11.25
2022-10-13T09:30:03.725Z,11.27
2022-10-13T09:31:03.683Z,11.23
2022-10-13T09:32:03.675Z,11.33
2022-10-13T09:33:03.687Z,11.37
2022-10-13T09:34:03.651Z,11.43
2022-10-13T09:35:03.638Z,11.43
2022-10-13T09:36:03.648Z,11.48
2022-10-13T09:37:03.648Z,11.52
2022-10-13T09:38:03.604Z,11.54
2022-10-13T09:39:03.596Z,11.54
2022-10-13T09:40:03.584Z,11.59
2022-10-13T09:41:03.605Z,11.62
2022-10-13T09:42:03.573Z,11.70
2022-10-13T09:43:03.550Z,11.67
2022-10-13T09:44:03.541Z,11.67
2022-10-13T09:45:03.527Z,11.77
2022-10-13T09:46:03.536Z,11.84
2022-10-13T09:47:03.533Z,11.70
2022-10-13T09:48:03.505Z,11.84
2022-10-13T09:49:03.484Z,11.82
2022-10-13T09:50:07.415Z,11.79
2022-10-13T09:51:03.465Z,11.97
2022-10-13T09:52:03.497Z,11.88
2022-10-13T09:53:03.442Z,11.82
2022-10-13T09:54:03.431Z,11.96
2022-10-13T09:55:03.421Z,12.04
2022-10-13T09:56:03.405Z,11.99
2022-10-13T09:57:03.429Z,12.04
2022-10-13T09:58:03.391Z,12.03
2022-10-13T09:59:03.388Z,12.11
2022-10-13T10:00:03.457Z,12.14
2022-10-13T10:01:03.359Z,12.23
2022-10-13T10:02:03.375Z,12.17
2022-10-13T10:03:03.351Z,12.26
2022-10-13T10:04:03.370Z,12.26
2022-10-13T10:05:03.316Z,12.38
2022-10-13T10:06:03.353Z,12.40
2022-10-13T10:07:03.323Z,12.46
2022-10-13T10:08:03.316Z,12.33
2022-10-13T10:09:04.633Z,12.44
2022-10-13T10:10:03.256Z,12.43
2022-10-13T10:11:03.247Z,12.50
2022-10-13T10:12:03.260Z,12.50
2022-10-13T10:13:03.226Z,12.55
2022-10-13T10:14:03.236Z,12.55
2022-10-13T10:15:03.212Z,12.62
2022-10-13T10:16:03.194Z,12.63
2022-10-13T10:17:03.194Z,12.66
2022-10-13T10:18:03.169Z,12.66
2022-10-13T10:19:03.189Z,12.72
2022-10-13T10:20:03.148Z,12.69
2022-10-13T10:21:03.142Z,12.80
2022-10-13T10:22:03.153Z,12.76
2022-10-13T10:23:03.115Z,12.80
2022-10-13T10:24:03.126Z,12.81
2022-10-13T10:25:03.093Z,12.87
2022-10-13T10:26:03.081Z,12.90
2022-10-13T10:27:03.097Z,13.04
2022-10-13T10:28:03.061Z,13.01
2022-10-13T10:29:03.096Z,13.02
2022-10-13T10:30:03.061Z,13.05
2022-10-13T10:31:03.032Z,13.02
2022-10-13T10:32:03.018Z,13.21
2022-10-13T10:33:03.032Z,13.11
2022-10-13T10:34:02.995Z,13.21
2022-10-13T10:35:02.981Z,13.32
2022-10-13T10:36:02.977Z,13.20
2022-10-13T10:37:02.982Z,13.16
2022-10-13T10:38:02.954Z,13.38
2022-10-13T10:39:02.946Z,13.29
2022-10-13T10:40:03.070Z,13.29
2022-10-13T10:41:02.919Z,13.35
2022-10-13T10:42:02.926Z,13.49
2022-10-13T10:43:02.899Z,13.49
2022-10-13T10:44:02.893Z,13.53
2022-10-13T10:45:02.883Z,13.61
2022-10-13T10:46:02.872Z,13.65
2022-10-13T10:47:02.899Z,13.63
2022-10-13T10:48:02.844Z,13.72
2022-10-13T10:49:02.836Z,13.75
2022-10-13T10:50:02.826Z,13.73
2022-10-13T10:51:02.813Z,13.68
2022-10-13T10:52:02.819Z,13.82
2022-10-13T10:53:02.793Z,13.82
2022-10-13T10:54:02.779Z,13.93
2022-10-13T10:55:02.767Z,13.93
2022-10-13T10:56:02.797Z,13.88
2022-10-13T10:57:02.773Z,14.01
2022-10-13T10:58:02.742Z,14.05
2022-10-13T10:59:02.733Z,14.09
2022-10-13T11:00:02.725Z,14.09
2022-10-13T11:01:02.706Z,14.12
2022-10-13T11:02:02.727Z,14.15
2022-10-13T11:03:02.678Z,14.19
2022-10-13T11:04:02.675Z,14.16
2022-10-13T11:05:06.082Z,14.21
2022-10-13T11:06:02.650Z,14.27
2022-10-13T11:07:02.639Z,14.26
2022-10-13T11:08:02.642Z,14.28
2022-10-13T11:09:02.619Z,14.37
2022-10-13T11:10:02.632Z,14.40
2022-10-13T11:11:02.591Z,14.40
2022-10-13T11:12:02.604Z,14.40
2022-10-13T11:13:02.579Z,14.48
2022-10-13T11:14:02.558Z,14.56
2022-10-13T11:15:02.571Z,14.55
2022-10-13T11:16:02.541Z,14.61
2022-10-13T11:17:02.528Z,14.52
2022-10-13T11:18:02.516Z,14.58
2022-10-13T11:19:02.521Z,14.55
2022-10-13T11:20:02.517Z,14.64
2022-10-13T11:21:02.503Z,14.64
2022-10-13T11:22:02.471Z,14.78
2022-10-13T11:23:02.456Z,14.73
2022-10-13T11:24:02.456Z,14.71
2022-10-13T11:25:02.442Z,14.82
2022-10-13T11:26:02.450Z,14.79
2022-10-13T11:27:02.424Z,14.92
2022-10-13T11:28:02.504Z,14.90
2022-10-13T11:29:02.394Z,14.96
2022-10-13T11:30:02.412Z,15.03
2022-10-13T11:31:02.377Z,14.99
2022-10-13T11:32:02.391Z,15.07
2022-10-13T11:33:02.350Z,15.01
2022-10-13T11:34:02.346Z,15.07
2022-10-13T11:35:02.358Z,15.23
2022-10-13T11:36:02.324Z,15.12
2022-10-13T11:37:02.312Z,15.14
2022-10-13T11:38:12.633Z,15.17
2022-10-13T11:39:03.288Z,15.26
2022-10-13T11:40:02.275Z,15.35
2022-10-13T11:41:02.284Z,15.33
2022-10-13T11:42:02.270Z,15.38
2022-10-13T11:43:05.082Z,15.43
2022-10-13T11:44:02.258Z,15.40
2022-10-13T11:45:02.222Z,15.44
2022-10-13T11:46:02.209Z,15.45
2022-10-13T11:47:02.229Z,15.43
2022-10-13T11:48:02.234Z,15.56
2022-10-13T11:49:02.204Z,15.54
2022-10-13T11:50:02.174Z,15.65
2022-10-13T11:51:02.158Z,15.62
2022-10-13T11:52:02.151Z,15.66
2022-10-13T11:53:02.142Z,15.73
2022-10-13T11:54:02.149Z,15.81
2022-10-13T11:55:02.116Z,15.76
2022-10-13T11:56:02.108Z,15.80
2022-10-13T11:57:02.124Z,15.78
2022-10-13T11:58:02.090Z,15.77
2022-10-13T11:59:02.075Z,15.88
2022-10-13T12:00:02.080Z,15.87
2022-10-13T12:01:02.051Z,15.88
2022-10-13T12:02:02.065Z,15.90
2022-10-13T12:03:02.064Z,15.99
2022-10-13T12:04:02.022Z,15.98
2022-10-13T12:05:02.006Z,16.03
2022-10-13T12:06:02.017Z,16.06
2022-10-13T12:07:01.987Z,15.95
2022-10-13T12:08:01.997Z,16.06
2022-10-13T12:09:01.965Z,16.02
2022-10-13T12:10:01.955Z,16.06
2022-10-13T12:11:01.942Z,16.10
2022-10-13T12:12:01.930Z,16.10
2022-10-13T12:13:01.949Z,16.17
2022-10-13T12:14:01.906Z,16.22
2022-10-13T12:15:05.965Z,16.22
2022-10-13T12:16:02.909Z,16.16
2022-10-13T12:17:01.881Z,16.26
2022-10-13T12:18:01.870Z,16.24
2022-10-13T12:19:01.875Z,16.34
2022-10-13T12:20:01.840Z,16.29
2022-10-13T12:21:01.833Z,16.33
2022-10-13T12:22:01.818Z,16.32
2022-10-13T12:23:01.841Z,16.33
2022-10-13T12:24:01.799Z,16.36
2022-10-13T12:25:01.793Z,16.34
2022-10-13T12:26:01.781Z,16.42
2022-10-13T12:27:01.771Z,16.40
2022-10-13T12:28:01.781Z,16.39
2022-10-13T12:29:01.772Z,16.43
2022-10-13T12:30:01.730Z,16.39
2022-10-13T12:31:01.724Z,16.44
2022-10-13T12:32:01.728Z,16.52
2022-10-13T12:33:01.701Z,16.57
2022-10-13T12:34:01.720Z,16.51
2022-10-13T12:35:01.674Z,16.55
2022-10-13T12:36:01.673Z,16.47
2022-10-13T12:37:01.660Z,16.57
2022-10-13T12:38:01.647Z,16.57
2022-10-13T12:39:01.656Z,16.62
2022-10-13T12:40:01.625Z,16.65
2022-10-13T12:41:01.612Z,16.64
2022-10-13T12:42:01.606Z,16.51
2022-10-13T12:43:01.608Z,16.64
2022-10-13T12:44:05.593Z,16.69
2022-10-13T12:45:02.572Z,16.61
2022-10-13T12:46:01.560Z,16.74
2022-10-13T12:47:01.546Z,16.69
2022-10-13T12:48:01.583Z,16.59
2022-10-13T12:49:01.528Z,16.70
2022-10-13T12:50:01.537Z,16.69
2022-10-13T12:51:01.513Z,16.70
2022-10-13T12:52:01.534Z,16.70
2022-10-13T12:53:01.484Z,16.74
2022-10-13T12:54:01.466Z,16.70
2022-10-13T12:55:01.482Z,16.73
2022-10-13T12:56:01.447Z,16.76
2022-10-13T12:57:01.438Z,16.73
2022-10-13T12:58:01.446Z,16.70
2022-10-13T12:59:01.420Z,16.76
2022-10-13T13:00:01.414Z,16.73
2022-10-13T13:01:01.454Z,16.82
2022-10-13T13:02:01.385Z,16.79
2022-10-13T13:03:01.396Z,16.83
2022-10-13T13:04:01.384Z,16.74
2022-10-13T13:05:01.355Z,16.82
2022-10-13T13:06:01.358Z,16.83
2022-10-13T13:07:01.330Z,16.82
2022-10-13T13:08:01.340Z,16.88
2022-10-13T13:09:01.304Z,16.88
2022-10-13T13:10:01.299Z,16.84